Vinton, TX

1:49 PM MST on March 02, 2015 (GMT -0700)
APRSWXNET Anthony TX US | Change Station
CLOSE
Current Station
Personal Weather Station
Location: Chaparral, NM
Elevation: 3943 ft
Nearby Weather Stations

Elev 3943 ft 32.00 °N, 106.57 °W | Updated 42 minutes ago

Overcast
Overcast
60 °F
Feels Like 60 °F
N
2
Wind Variable Wind from West
Gusts 0.0 mph

Today
High -- | Low -- °F
--% Chance of Precip.
Yesterday
High -- | Low -- °F
Precip. -- in
6:32 AM 6:04 PM
Waxing Gibbous, 93% visible
Pressure 29.92 in
Visibility 6.0 miles
Clouds Scattered Clouds 9000 ft
Mostly Cloudy 13000 ft
Dew Point 36 °F
Humidity 41%
Rainfall -999.00 in
Snow Depth Not available.
UV 4 out of 12
Pollen 7.40 out of 12
Air Quality Not available.
Flu Activity Not available.
METAR KBIF 021958Z 23008KT 6SM HZ SCT090 BKN130 11/05 A3001 RMK AO2A RAE38 SLP130 P0000 T01100050 $

More Conditions Fewer Conditions

Pressure 29.92 in
Visibility 6.0 miles
Clouds Scattered Clouds 9000 ft
Mostly Cloudy 13000 ft
Dew Point 36 °F
Humidity 41%
Rainfall -999.00 in
Snow Depth Not available.
UV 4 out of 12
Pollen 7.40 out of 12
Air Quality Not available.
Flu Activity Not available.
METAR KBIF 021958Z 23008KT 6SM HZ SCT090 BKN130 11/05 A3001 RMK AO2A RAE38 SLP130 P0000 T01100050 $

More Conditions Fewer Conditions

Nowcast | as of 1:44 PM MST on March 2, 2015

At 135 PM MST...National Weather Service radar indicated widespread light rain across the region. Most areas are just getting sprinkles or drizzle at this time. A few areas are getting measurable light rainfall of generally under 2 tenths of an Inch. Mountain zones are getting higher amounts. Above 8000 feet rain may be occasionally mixed with snow but is not expected to accumulate through the afternoon or early evening. A few brief thunderstorms may occur over the Gila region for the next few hours.

×

10-Day Weather Forecast

Almanac

Astronomy

Mar. 02, 2015 Rise Set
Actual Time
Civil Twilight
Nautical Twilight
Astronomical Twilight
Moon
Length of Visible Light
Length of Day
Tomorrow will be .
, % of the Moon is Illuminated

Today's Extremes

State Highs State Lows

Community

WunderPhotos

Upload Photos

1,801,941 photos uploaded!

WunderBlogs® & News

Nearby

Air Quality

  Air Quality AQ Index Pollutant
Not available.

Snow Depth

Station Depth Elevation

Earthquake Activity

City Distance Mag. Time & Date
Minimum magnitude displayed is 2.5.

Coastal Water Temperatures

Place Temperature

Nearby Weather Stations